sensor_id;sensor_type;location;lat;lon;timestamp;P1;durP1;ratioP1;P2;durP2;ratioP2
21488;SDS011;10906;45.194;5.684;2022-07-29T05:00:36;3.35;;;2.20;;
21488;SDS011;10906;45.194;5.684;2022-07-29T05:03:21;15.25;;;2.33;;
21488;SDS011;10906;45.194;5.684;2022-07-29T05:06:05;6.13;;;2.15;;
21488;SDS011;10906;45.194;5.684;2022-07-29T05:08:49;8.32;;;2.58;;
21488;SDS011;10906;45.194;5.684;2022-07-29T05:11:33;6.15;;;2.25;;
21488;SDS011;10906;45.194;5.684;2022-07-29T05:14:17;7.20;;;2.40;;
21488;SDS011;10906;45.194;5.684;2022-07-29T05:17:02;9.02;;;2.35;;
21488;SDS011;10906;45.194;5.684;2022-07-29T05:19:47;5.28;;;2.20;;
21488;SDS011;10906;45.194;5.684;2022-07-29T05:22:31;5.93;;;2.80;;
21488;SDS011;10906;45.194;5.684;2022-07-29T05:25:14;6.25;;;2.78;;
21488;SDS011;10906;45.194;5.684;2022-07-29T05:27:59;5.75;;;2.50;;
21488;SDS011;10906;45.194;5.684;2022-07-29T05:30:43;3.78;;;2.15;;
21488;SDS011;10906;45.194;5.684;2022-07-29T05:33:28;4.80;;;2.05;;
21488;SDS011;10906;45.194;5.684;2022-07-29T05:36:12;3.63;;;2.38;;
21488;SDS011;10906;45.194;5.684;2022-07-29T05:38:57;5.07;;;2.30;;
21488;SDS011;10906;45.194;5.684;2022-07-29T05:41:41;7.63;;;2.17;;
21488;SDS011;10906;45.194;5.684;2022-07-29T05:44:25;7.22;;;2.45;;
21488;SDS011;10906;45.194;5.684;2022-07-29T05:47:09;5.20;;;2.50;;
21488;SDS011;10906;45.194;5.684;2022-07-29T05:49:53;9.23;;;2.63;;
21488;SDS011;10906;45.194;5.684;2022-07-29T05:52:38;12.93;;;2.40;;
21488;SDS011;10906;45.194;5.684;2022-07-29T05:55:22;10.45;;;2.58;;
21488;SDS011;10906;45.194;5.684;2022-07-29T05:58:07;6.00;;;2.38;;
21488;SDS011;10906;45.194;5.684;2022-07-29T06:00:51;5.05;;;2.08;;
21488;SDS011;10906;45.194;5.684;2022-07-29T06:03:36;6.65;;;2.25;;
21488;SDS011;10906;45.194;5.684;2022-07-29T06:06:21;12.52;;;2.60;;
21488;SDS011;10906;45.194;5.684;2022-07-29T06:09:06;4.85;;;2.40;;
21488;SDS011;10906;45.194;5.684;2022-07-29T06:11:51;10.48;;;2.95;;
21488;SDS011;10906;45.194;5.684;2022-07-29T06:14:35;5.75;;;2.20;;
21488;SDS011;10906;45.194;5.684;2022-07-29T06:17:21;6.10;;;2.28;;
21488;SDS011;10906;45.194;5.684;2022-07-29T06:20:05;6.97;;;2.50;;
21488;SDS011;10906;45.194;5.684;2022-07-29T06:22:50;3.03;;;1.92;;
21488;SDS011;10906;45.194;5.684;2022-07-29T06:25:34;5.65;;;3.10;;
21488;SDS011;10906;45.194;5.684;2022-07-29T06:28:20;11.18;;;3.17;;
21488;SDS011;10906;45.194;5.684;2022-07-29T06:31:05;13.98;;;2.67;;
21488;SDS011;10906;45.194;5.684;2022-07-29T06:33:49;9.07;;;3.15;;
21488;SDS011;10906;45.194;5.684;2022-07-29T06:36:34;10.07;;;2.70;;
21488;SDS011;10906;45.194;5.684;2022-07-29T06:39:20;15.57;;;3.30;;
21488;SDS011;10906;45.194;5.684;2022-07-29T06:42:04;13.55;;;3.42;;
21488;SDS011;10906;45.194;5.684;2022-07-29T06:44:49;17.25;;;3.75;;
21488;SDS011;10906;45.194;5.684;2022-07-29T06:47:33;15.50;;;3.42;;
21488;SDS011;10906;45.194;5.684;2022-07-29T06:50:17;14.32;;;3.10;;
21488;SDS011;10906;45.194;5.684;2022-07-29T06:53:02;12.63;;;3.22;;
21488;SDS011;10906;45.194;5.684;2022-07-29T06:55:47;15.95;;;3.28;;
21488;SDS011;10906;45.194;5.684;2022-07-29T06:58:31;16.10;;;2.97;;
21488;SDS011;10906;45.194;5.684;2022-07-29T07:01:16;8.52;;;2.58;;
21488;SDS011;10906;45.194;5.684;2022-07-29T07:04:00;8.77;;;2.72;;
21488;SDS011;10906;45.194;5.684;2022-07-29T07:06:45;10.38;;;2.67;;
21488;SDS011;10906;45.194;5.684;2022-07-29T07:09:29;8.48;;;2.17;;
21488;SDS011;10906;45.194;5.684;2022-07-29T07:12:13;7.97;;;2.20;;
21488;SDS011;10906;45.194;5.684;2022-07-29T07:14:58;7.75;;;2.13;;
21488;SDS011;10906;45.194;5.684;2022-07-29T07:17:42;10.20;;;2.83;;
21488;SDS011;10906;45.194;5.684;2022-07-29T07:20:27;7.00;;;2.30;;
21488;SDS011;10906;45.194;5.684;2022-07-29T07:23:11;12.50;;;2.85;;
21488;SDS011;10906;45.194;5.684;2022-07-29T07:25:56;9.23;;;2.50;;
21488;SDS011;10906;45.194;5.684;2022-07-29T07:28:40;16.23;;;2.67;;
21488;SDS011;10906;45.194;5.684;2022-07-29T07:31:25;11.05;;;3.13;;
21488;SDS011;10906;45.194;5.684;2022-07-29T07:34:10;8.55;;;2.55;;
21488;SDS011;10906;45.194;5.684;2022-07-29T07:36:54;14.25;;;2.50;;
21488;SDS011;10906;45.194;5.684;2022-07-29T07:39:38;15.02;;;2.70;;
21488;SDS011;10906;45.194;5.684;2022-07-29T07:42:22;14.40;;;3.08;;
21488;SDS011;10906;45.194;5.684;2022-07-29T07:45:07;10.95;;;2.83;;
21488;SDS011;10906;45.194;5.684;2022-07-29T07:47:52;5.28;;;2.00;;
21488;SDS011;10906;45.194;5.684;2022-07-29T07:50:37;11.13;;;2.40;;
21488;SDS011;10906;45.194;5.684;2022-07-29T07:53:21;7.85;;;2.35;;
21488;SDS011;10906;45.194;5.684;2022-07-29T07:56:05;10.93;;;2.47;;
21488;SDS011;10906;45.194;5.684;2022-07-29T07:58:50;12.05;;;2.22;;
21488;SDS011;10906;45.194;5.684;2022-07-29T08:01:34;11.90;;;2.17;;
21488;SDS011;10906;45.194;5.684;2022-07-29T08:04:19;5.70;;;2.03;;
21488;SDS011;10906;45.194;5.684;2022-07-29T08:07:03;4.32;;;2.10;;
21488;SDS011;10906;45.194;5.684;2022-07-29T08:09:48;12.80;;;2.92;;
21488;SDS011;10906;45.194;5.684;2022-07-29T08:12:32;9.68;;;2.92;;
21488;SDS011;10906;45.194;5.684;2022-07-29T08:15:16;9.75;;;3.60;;
21488;SDS011;10906;45.194;5.684;2022-07-29T08:18:00;9.00;;;3.08;;
21488;SDS011;10906;45.194;5.684;2022-07-29T08:20:44;8.90;;;3.25;;
21488;SDS011;10906;45.194;5.684;2022-07-29T08:23:28;8.52;;;3.38;;
21488;SDS011;10906;45.194;5.684;2022-07-29T08:26:22;9.60;;;3.63;;
21488;SDS011;10906;45.194;5.684;2022-07-29T08:29:07;8.55;;;2.92;;
21488;SDS011;10906;45.194;5.684;2022-07-29T08:31:51;6.25;;;3.17;;
21488;SDS011;10906;45.194;5.684;2022-07-29T08:34:35;11.73;;;3.70;;
21488;SDS011;10906;45.194;5.684;2022-07-29T08:37:19;8.15;;;3.20;;
21488;SDS011;10906;45.194;5.684;2022-07-29T08:40:04;12.38;;;2.97;;
21488;SDS011;10906;45.194;5.684;2022-07-29T08:42:50;9.50;;;3.40;;
21488;SDS011;10906;45.194;5.684;2022-07-29T08:45:44;8.82;;;3.13;;
21488;SDS011;10906;45.194;5.684;2022-07-29T08:48:30;26.42;;;5.47;;
21488;SDS011;10906;45.194;5.684;2022-07-29T08:51:17;18.33;;;6.10;;
21488;SDS011;10906;45.194;5.684;2022-07-29T08:54:03;18.05;;;6.55;;
21488;SDS011;10906;45.194;5.684;2022-07-29T08:56:49;27.15;;;8.20;;
21488;SDS011;10906;45.194;5.684;2022-07-29T08:59:34;17.23;;;7.05;;
21488;SDS011;10906;45.194;5.684;2022-07-29T09:02:21;21.98;;;7.70;;
21488;SDS011;10906;45.194;5.684;2022-07-29T09:05:06;16.75;;;6.53;;
21488;SDS011;10906;45.194;5.684;2022-07-29T09:07:51;31.70;;;9.70;;
21488;SDS011;10906;45.194;5.684;2022-07-29T09:10:36;20.95;;;7.30;;
21488;SDS011;10906;45.194;5.684;2022-07-29T09:13:20;16.13;;;6.80;;
21488;SDS011;10906;45.194;5.684;2022-07-29T09:16:05;16.70;;;6.15;;
21488;SDS011;10906;45.194;5.684;2022-07-29T09:18:50;20.50;;;6.80;;
21488;SDS011;10906;45.194;5.684;2022-07-29T09:21:40;17.00;;;7.43;;
21488;SDS011;10906;45.194;5.684;2022-07-29T09:24:43;19.45;;;8.98;;
21488;SDS011;10906;45.194;5.684;2022-07-29T09:27:30;21.67;;;10.80;;
21488;SDS011;10906;45.194;5.684;2022-07-29T09:30:15;28.67;;;9.20;;
21488;SDS011;10906;45.194;5.684;2022-07-29T09:33:00;12.77;;;6.50;;
21488;SDS011;10906;45.194;5.684;2022-07-29T09:35:46;15.52;;;7.72;;
21488;SDS011;10906;45.194;5.684;2022-07-29T09:38:59;15.52;;;7.30;;
21488;SDS011;10906;45.194;5.684;2022-07-29T09:44:40;14.25;;;7.85;;
21488;SDS011;10906;45.194;5.684;2022-07-29T09:47:45;16.48;;;9.50;;
21488;SDS011;10906;45.194;5.684;2022-07-29T09:50:36;18.58;;;8.10;;
21488;SDS011;10906;45.194;5.684;2022-07-29T09:53:34;16.33;;;7.80;;
21488;SDS011;10906;45.194;5.684;2022-07-29T09:56:23;18.08;;;7.90;;
21488;SDS011;10906;45.194;5.684;2022-07-29T09:59:22;16.85;;;7.90;;
21488;SDS011;10906;45.194;5.684;2022-07-29T10:02:13;15.05;;;8.43;;
21488;SDS011;10906;45.194;5.684;2022-07-29T10:04:58;15.25;;;9.82;;
21488;SDS011;10906;45.194;5.684;2022-07-29T10:07:45;15.07;;;8.73;;
21488;SDS011;10906;45.194;5.684;2022-07-29T10:10:33;13.27;;;6.72;;
21488;SDS011;10906;45.194;5.684;2022-07-29T10:13:19;9.80;;;7.07;;
21488;SDS011;10906;45.194;5.684;2022-07-29T10:16:03;12.68;;;6.95;;
21488;SDS011;10906;45.194;5.684;2022-07-29T10:18:50;14.60;;;7.38;;
21488;SDS011;10906;45.194;5.684;2022-07-29T10:21:35;11.57;;;7.50;;
21488;SDS011;10906;45.194;5.684;2022-07-29T10:24:21;15.95;;;6.38;;
21488;SDS011;10906;45.194;5.684;2022-07-29T10:27:07;14.32;;;6.85;;
21488;SDS011;10906;45.194;5.684;2022-07-29T10:29:53;13.63;;;7.80;;
21488;SDS011;10906;45.194;5.684;2022-07-29T10:44:20;12.43;;;6.07;;
21488;SDS011;10906;45.194;5.684;2022-07-29T10:47:06;14.13;;;6.82;;
21488;SDS011;10906;45.194;5.684;2022-07-29T10:49:55;11.80;;;6.13;;
21488;SDS011;10906;45.194;5.684;2022-07-29T10:55:38;15.88;;;8.75;;
21488;SDS011;10906;45.194;5.684;2022-07-29T10:58:28;13.80;;;6.20;;
21488;SDS011;10906;45.194;5.684;2022-07-29T11:01:28;10.77;;;7.10;;
21488;SDS011;10906;45.194;5.684;2022-07-29T11:04:13;15.63;;;7.28;;
21488;SDS011;10906;45.194;5.684;2022-07-29T11:12:55;23.55;;;9.88;;
21488;SDS011;10906;45.194;5.684;2022-07-29T11:15:52;18.60;;;9.75;;
21488;SDS011;10906;45.194;5.684;2022-07-29T11:21:56;12.55;;;8.27;;
21488;SDS011;10906;45.194;5.684;2022-07-29T11:24:41;19.67;;;11.35;;
21488;SDS011;10906;45.194;5.684;2022-07-29T11:30:14;14.68;;;10.57;;
21488;SDS011;10906;45.194;5.684;2022-07-29T11:32:59;15.43;;;12.07;;
21488;SDS011;10906;45.194;5.684;2022-07-29T11:35:43;14.98;;;11.88;;
21488;SDS011;10906;45.194;5.684;2022-07-29T11:39:24;16.05;;;11.20;;
21488;SDS011;10906;45.194;5.684;2022-07-29T11:45:09;17.92;;;13.55;;
21488;SDS011;10906;45.194;5.684;2022-07-29T11:47:58;20.67;;;15.23;;
21488;SDS011;10906;45.194;5.684;2022-07-29T11:50:43;22.67;;;15.35;;
21488;SDS011;10906;45.194;5.684;2022-07-29T11:53:28;17.05;;;14.52;;
21488;SDS011;10906;45.194;5.684;2022-07-29T11:56:13;18.55;;;13.55;;
21488;SDS011;10906;45.194;5.684;2022-07-29T11:59:03;19.85;;;12.70;;
21488;SDS011;10906;45.194;5.684;2022-07-29T12:01:52;15.85;;;11.48;;
21488;SDS011;10906;45.194;5.684;2022-07-29T12:07:39;17.52;;;12.88;;
21488;SDS011;10906;45.194;5.684;2022-07-29T12:10:23;20.83;;;15.18;;
21488;SDS011;10906;45.194;5.684;2022-07-29T12:13:14;26.50;;;16.95;;
21488;SDS011;10906;45.194;5.684;2022-07-29T12:16:02;25.50;;;16.70;;
21488;SDS011;10906;45.194;5.684;2022-07-29T12:18:59;24.45;;;16.73;;
21488;SDS011;10906;45.194;5.684;2022-07-29T12:21:45;19.13;;;16.77;;
21488;SDS011;10906;45.194;5.684;2022-07-29T12:24:42;18.65;;;15.75;;
21488;SDS011;10906;45.194;5.684;2022-07-29T12:27:27;20.35;;;16.95;;
21488;SDS011;10906;45.194;5.684;2022-07-29T12:30:12;19.85;;;14.20;;
21488;SDS011;10906;45.194;5.684;2022-07-29T12:33:01;23.45;;;18.15;;
21488;SDS011;10906;45.194;5.684;2022-07-29T12:36:00;20.38;;;17.35;;
21488;SDS011;10906;45.194;5.684;2022-07-29T12:38:45;22.55;;;15.80;;
21488;SDS011;10906;45.194;5.684;2022-07-29T12:41:29;26.60;;;17.13;;
21488;SDS011;10906;45.194;5.684;2022-07-29T12:44:14;23.77;;;19.52;;
21488;SDS011;10906;45.194;5.684;2022-07-29T12:49:47;18.10;;;13.82;;
21488;SDS011;10906;45.194;5.684;2022-07-29T12:52:33;17.02;;;11.93;;
21488;SDS011;10906;45.194;5.684;2022-07-29T13:01:16;17.53;;;9.60;;
21488;SDS011;10906;45.194;5.684;2022-07-29T13:04:03;13.57;;;8.77;;
21488;SDS011;10906;45.194;5.684;2022-07-29T13:06:47;8.40;;;7.35;;
21488;SDS011;10906;45.194;5.684;2022-07-29T13:09:42;9.90;;;9.00;;
21488;SDS011;10906;45.194;5.684;2022-07-29T13:12:29;10.23;;;6.72;;
21488;SDS011;10906;45.194;5.684;2022-07-29T13:15:14;7.63;;;6.07;;
21488;SDS011;10906;45.194;5.684;2022-07-29T13:17:59;10.90;;;6.82;;
21488;SDS011;10906;45.194;5.684;2022-07-29T13:20:44;11.55;;;6.63;;
21488;SDS011;10906;45.194;5.684;2022-07-29T13:23:28;9.57;;;7.57;;
21488;SDS011;10906;45.194;5.684;2022-07-29T13:26:13;9.82;;;7.10;;
21488;SDS011;10906;45.194;5.684;2022-07-29T13:29:00;8.70;;;6.45;;
21488;SDS011;10906;45.194;5.684;2022-07-29T13:31:45;8.25;;;6.47;;
21488;SDS011;10906;45.194;5.684;2022-07-29T13:34:29;8.40;;;6.88;;
21488;SDS011;10906;45.194;5.684;2022-07-29T13:37:14;7.55;;;6.00;;
21488;SDS011;10906;45.194;5.684;2022-07-29T13:40:01;11.88;;;6.35;;
21488;SDS011;10906;45.194;5.684;2022-07-29T13:42:46;9.35;;;6.20;;
21488;SDS011;10906;45.194;5.684;2022-07-29T13:45:30;8.32;;;5.90;;
21488;SDS011;10906;45.194;5.684;2022-07-29T13:48:15;8.30;;;5.93;;
21488;SDS011;10906;45.194;5.684;2022-07-29T13:50:59;6.70;;;5.60;;
21488;SDS011;10906;45.194;5.684;2022-07-29T13:53:44;7.78;;;5.32;;
21488;SDS011;10906;45.194;5.684;2022-07-29T13:56:28;8.30;;;5.10;;
21488;SDS011;10906;45.194;5.684;2022-07-29T13:59:12;5.97;;;4.47;;
21488;SDS011;10906;45.194;5.684;2022-07-29T14:01:57;5.30;;;4.45;;
21488;SDS011;10906;45.194;5.684;2022-07-29T14:04:42;7.45;;;4.60;;
21488;SDS011;10906;45.194;5.684;2022-07-29T14:07:26;5.13;;;4.50;;
21488;SDS011;10906;45.194;5.684;2022-07-29T14:10:11;6.25;;;4.10;;
21488;SDS011;10906;45.194;5.684;2022-07-29T14:12:55;4.78;;;3.70;;
21488;SDS011;10906;45.194;5.684;2022-07-29T14:15:40;7.22;;;3.78;;
21488;SDS011;10906;45.194;5.684;2022-07-29T14:18:25;8.07;;;4.20;;
21488;SDS011;10906;45.194;5.684;2022-07-29T14:21:08;5.43;;;4.43;;
21488;SDS011;10906;45.194;5.684;2022-07-29T14:23:53;6.00;;;4.05;;
21488;SDS011;10906;45.194;5.684;2022-07-29T14:26:38;6.55;;;4.72;;
21488;SDS011;10906;45.194;5.684;2022-07-29T14:29:22;6.88;;;4.50;;
21488;SDS011;10906;45.194;5.684;2022-07-29T14:32:07;6.43;;;4.25;;
21488;SDS011;10906;45.194;5.684;2022-07-29T14:34:53;6.10;;;4.03;;
21488;SDS011;10906;45.194;5.684;2022-07-29T14:37:38;6.55;;;4.47;;
21488;SDS011;10906;45.194;5.684;2022-07-29T14:40:22;6.95;;;4.20;;
21488;SDS011;10906;45.194;5.684;2022-07-29T14:43:07;5.65;;;4.18;;
21488;SDS011;10906;45.194;5.684;2022-07-29T14:45:51;7.38;;;3.88;;
21488;SDS011;10906;45.194;5.684;2022-07-29T14:48:36;6.35;;;4.35;;
21488;SDS011;10906;45.194;5.684;2022-07-29T14:51:20;6.40;;;4.10;;
21488;SDS011;10906;45.194;5.684;2022-07-29T14:54:05;6.03;;;4.47;;
21488;SDS011;10906;45.194;5.684;2022-07-29T14:56:50;5.20;;;4.00;;
21488;SDS011;10906;45.194;5.684;2022-07-29T14:59:35;10.63;;;4.50;;
21488;SDS011;10906;45.194;5.684;2022-07-29T15:02:19;4.18;;;3.78;;
21488;SDS011;10906;45.194;5.684;2022-07-29T15:05:03;4.50;;;3.40;;
21488;SDS011;10906;45.194;5.684;2022-07-29T15:07:48;4.28;;;3.63;;
21488;SDS011;10906;45.194;5.684;2022-07-29T15:10:33;5.88;;;3.90;;
21488;SDS011;10906;45.194;5.684;2022-07-29T15:13:17;4.72;;;3.25;;
21488;SDS011;10906;45.194;5.684;2022-07-29T15:16:02;5.35;;;3.42;;
21488;SDS011;10906;45.194;5.684;2022-07-29T15:18:48;5.82;;;3.47;;
21488;SDS011;10906;45.194;5.684;2022-07-29T15:21:33;5.80;;;3.72;;
21488;SDS011;10906;45.194;5.684;2022-07-29T15:24:18;6.05;;;3.83;;
21488;SDS011;10906;45.194;5.684;2022-07-29T15:27:02;5.38;;;3.90;;
21488;SDS011;10906;45.194;5.684;2022-07-29T15:29:46;5.63;;;3.38;;
21488;SDS011;10906;45.194;5.684;2022-07-29T15:32:31;5.65;;;3.42;;
21488;SDS011;10906;45.194;5.684;2022-07-29T15:35:16;6.22;;;3.25;;
21488;SDS011;10906;45.194;5.684;2022-07-29T15:38:00;5.13;;;3.00;;
21488;SDS011;10906;45.194;5.684;2022-07-29T15:40:45;4.63;;;3.30;;
21488;SDS011;10906;45.194;5.684;2022-07-29T15:43:30;3.78;;;3.20;;
21488;SDS011;10906;45.194;5.684;2022-07-29T15:46:15;6.55;;;3.33;;
21488;SDS011;10906;45.194;5.684;2022-07-29T15:49:20;5.28;;;3.20;;
21488;SDS011;10906;45.194;5.684;2022-07-29T15:52:06;3.38;;;3.08;;
21488;SDS011;10906;45.194;5.684;2022-07-29T15:54:51;6.90;;;2.85;;
21488;SDS011;10906;45.194;5.684;2022-07-29T15:57:35;7.53;;;3.50;;
21488;SDS011;10906;45.194;5.684;2022-07-29T16:00:20;3.85;;;2.92;;
21488;SDS011;10906;45.194;5.684;2022-07-29T16:03:05;6.10;;;3.13;;
21488;SDS011;10906;45.194;5.684;2022-07-29T16:05:49;3.92;;;2.83;;
21488;SDS011;10906;45.194;5.684;2022-07-29T16:08:34;2.92;;;2.72;;
21488;SDS011;10906;45.194;5.684;2022-07-29T16:11:18;3.90;;;2.65;;
21488;SDS011;10906;45.194;5.684;2022-07-29T16:14:02;3.90;;;2.80;;
21488;SDS011;10906;45.194;5.684;2022-07-29T16:16:46;3.45;;;2.78;;
21488;SDS011;10906;45.194;5.684;2022-07-29T16:19:31;3.63;;;2.83;;
21488;SDS011;10906;45.194;5.684;2022-07-29T16:22:16;5.18;;;2.63;;
21488;SDS011;10906;45.194;5.684;2022-07-29T16:25:00;3.70;;;3.00;;
21488;SDS011;10906;45.194;5.684;2022-07-29T16:27:45;3.58;;;2.90;;
21488;SDS011;10906;45.194;5.684;2022-07-29T16:30:29;3.90;;;2.70;;
21488;SDS011;10906;45.194;5.684;2022-07-29T16:33:14;5.13;;;2.75;;
21488;SDS011;10906;45.194;5.684;2022-07-29T16:35:58;2.80;;;2.35;;
21488;SDS011;10906;45.194;5.684;2022-07-29T16:38:42;5.43;;;2.50;;
21488;SDS011;10906;45.194;5.684;2022-07-29T16:41:27;2.78;;;2.20;;
21488;SDS011;10906;45.194;5.684;2022-07-29T16:44:12;2.95;;;2.47;;
21488;SDS011;10906;45.194;5.684;2022-07-29T16:46:57;3.33;;;2.65;;
21488;SDS011;10906;45.194;5.684;2022-07-29T16:49:41;5.82;;;2.33;;
21488;SDS011;10906;45.194;5.684;2022-07-29T16:52:25;2.72;;;2.08;;
21488;SDS011;10906;45.194;5.684;2022-07-29T16:55:10;3.22;;;2.33;;
21488;SDS011;10906;45.194;5.684;2022-07-29T16:57:54;4.88;;;2.42;;
21488;SDS011;10906;45.194;5.684;2022-07-29T17:00:39;3.60;;;2.10;;
21488;SDS011;10906;45.194;5.684;2022-07-29T17:03:23;3.00;;;2.17;;
21488;SDS011;10906;45.194;5.684;2022-07-29T17:06:08;2.95;;;2.53;;
21488;SDS011;10906;45.194;5.684;2022-07-29T17:08:52;3.30;;;2.30;;
21488;SDS011;10906;45.194;5.684;2022-07-29T17:11:36;2.30;;;2.03;;
21488;SDS011;10906;45.194;5.684;2022-07-29T17:14:22;2.83;;;2.17;;
21488;SDS011;10906;45.194;5.684;2022-07-29T17:17:08;3.22;;;1.98;;
21488;SDS011;10906;45.194;5.684;2022-07-29T17:19:52;3.05;;;2.10;;
21488;SDS011;10906;45.194;5.684;2022-07-29T17:22:36;5.20;;;2.10;;
21488;SDS011;10906;45.194;5.684;2022-07-29T17:25:22;3.60;;;2.05;;
21488;SDS011;10906;45.194;5.684;2022-07-29T17:28:07;3.40;;;2.58;;
21488;SDS011;10906;45.194;5.684;2022-07-29T17:30:51;4.78;;;1.90;;
21488;SDS011;10906;45.194;5.684;2022-07-29T17:33:36;2.60;;;2.20;;
21488;SDS011;10906;45.194;5.684;2022-07-29T17:36:21;3.50;;;2.50;;
21488;SDS011;10906;45.194;5.684;2022-07-29T17:39:09;2.92;;;1.95;;
21488;SDS011;10906;45.194;5.684;2022-07-29T17:41:53;4.05;;;2.30;;
21488;SDS011;10906;45.194;5.684;2022-07-29T17:44:38;2.97;;;2.00;;
21488;SDS011;10906;45.194;5.684;2022-07-29T17:47:23;2.63;;;2.22;;
21488;SDS011;10906;45.194;5.684;2022-07-29T17:50:07;2.60;;;2.13;;
21488;SDS011;10906;45.194;5.684;2022-07-29T17:52:52;3.67;;;1.90;;
21488;SDS011;10906;45.194;5.684;2022-07-29T17:55:36;4.13;;;2.05;;
21488;SDS011;10906;45.194;5.684;2022-07-29T17:58:21;4.40;;;2.35;;
21488;SDS011;10906;45.194;5.684;2022-07-29T18:01:06;2.53;;;2.15;;
21488;SDS011;10906;45.194;5.684;2022-07-29T18:03:51;2.75;;;1.98;;
21488;SDS011;10906;45.194;5.684;2022-07-29T18:06:35;5.78;;;2.33;;
21488;SDS011;10906;45.194;5.684;2022-07-29T18:09:20;3.97;;;2.25;;
21488;SDS011;10906;45.194;5.684;2022-07-29T18:12:04;4.03;;;2.22;;
21488;SDS011;10906;45.194;5.684;2022-07-29T18:14:49;3.58;;;1.88;;
21488;SDS011;10906;45.194;5.684;2022-07-29T18:17:34;4.38;;;2.28;;
21488;SDS011;10906;45.194;5.684;2022-07-29T18:20:19;7.10;;;2.33;;
21488;SDS011;10906;45.194;5.684;2022-07-29T18:23:03;5.05;;;2.25;;
21488;SDS011;10906;45.194;5.684;2022-07-29T18:25:48;2.60;;;2.15;;
21488;SDS011;10906;45.194;5.684;2022-07-29T18:28:32;3.92;;;2.22;;
21488;SDS011;10906;45.194;5.684;2022-07-29T18:31:17;5.07;;;2.28;;
21488;SDS011;10906;45.194;5.684;2022-07-29T18:34:01;3.47;;;1.90;;
21488;SDS011;10906;45.194;5.684;2022-07-29T18:36:45;2.40;;;2.20;;
21488;SDS011;10906;45.194;5.684;2022-07-29T18:39:29;3.80;;;2.10;;
21488;SDS011;10906;45.194;5.684;2022-07-29T18:42:14;2.80;;;2.00;;
21488;SDS011;10906;45.194;5.684;2022-07-29T18:44:58;3.67;;;1.98;;
21488;SDS011;10906;45.194;5.684;2022-07-29T18:47:43;4.47;;;2.63;;
21488;SDS011;10906;45.194;5.684;2022-07-29T18:50:27;3.95;;;2.80;;
21488;SDS011;10906;45.194;5.684;2022-07-29T18:53:12;3.03;;;2.28;;
21488;SDS011;10906;45.194;5.684;2022-07-29T18:55:57;3.45;;;2.35;;
21488;SDS011;10906;45.194;5.684;2022-07-29T18:58:43;3.05;;;2.28;;
21488;SDS011;10906;45.194;5.684;2022-07-29T19:01:28;2.35;;;2.00;;
21488;SDS011;10906;45.194;5.684;2022-07-29T19:04:13;4.35;;;1.98;;
21488;SDS011;10906;45.194;5.684;2022-07-29T19:06:58;3.13;;;2.20;;
21488;SDS011;10906;45.194;5.684;2022-07-29T19:09:45;2.55;;;2.20;;
21488;SDS011;10906;45.194;5.684;2022-07-29T19:12:30;3.13;;;2.30;;
21488;SDS011;10906;45.194;5.684;2022-07-29T19:15:14;5.45;;;2.33;;
21488;SDS011;10906;45.194;5.684;2022-07-29T19:17:59;2.63;;;2.22;;
21488;SDS011;10906;45.194;5.684;2022-07-29T19:20:43;4.05;;;2.00;;
21488;SDS011;10906;45.194;5.684;2022-07-29T19:23:27;4.55;;;2.30;;
21488;SDS011;10906;45.194;5.684;2022-07-29T19:26:11;4.15;;;2.30;;
21488;SDS011;10906;45.194;5.684;2022-07-29T19:28:56;5.80;;;2.17;;
21488;SDS011;10906;45.194;5.684;2022-07-29T19:31:41;2.90;;;2.00;;
21488;SDS011;10906;45.194;5.684;2022-07-29T19:34:26;3.05;;;2.15;;
21488;SDS011;10906;45.194;5.684;2022-07-29T19:37:10;4.13;;;2.40;;
21488;SDS011;10906;45.194;5.684;2022-07-29T19:39:55;5.40;;;2.50;;
21488;SDS011;10906;45.194;5.684;2022-07-29T19:42:39;4.43;;;2.35;;
21488;SDS011;10906;45.194;5.684;2022-07-29T19:45:24;4.50;;;2.13;;
21488;SDS011;10906;45.194;5.684;2022-07-29T19:48:08;4.72;;;2.28;;
21488;SDS011;10906;45.194;5.684;2022-07-29T19:50:53;2.90;;;2.15;;
21488;SDS011;10906;45.194;5.684;2022-07-29T19:53:37;4.20;;;2.85;;
21488;SDS011;10906;45.194;5.684;2022-07-29T19:56:24;3.30;;;2.53;;
21488;SDS011;10906;45.194;5.684;2022-07-29T19:59:09;2.55;;;2.35;;
21488;SDS011;10906;45.194;5.684;2022-07-29T20:01:53;5.93;;;2.55;;
21488;SDS011;10906;45.194;5.684;2022-07-29T20:04:38;4.75;;;2.22;;
21488;SDS011;10906;45.194;5.684;2022-07-29T20:07:22;4.53;;;2.50;;
21488;SDS011;10906;45.194;5.684;2022-07-29T20:10:07;6.72;;;2.72;;
21488;SDS011;10906;45.194;5.684;2022-07-29T20:12:52;4.05;;;2.40;;
21488;SDS011;10906;45.194;5.684;2022-07-29T20:15:37;7.53;;;2.22;;
21488;SDS011;10906;45.194;5.684;2022-07-29T20:18:21;6.05;;;2.10;;
21488;SDS011;10906;45.194;5.684;2022-07-29T20:21:05;2.95;;;2.60;;
21488;SDS011;10906;45.194;5.684;2022-07-29T20:23:50;4.82;;;2.60;;
21488;SDS011;10906;45.194;5.684;2022-07-29T20:26:35;3.03;;;2.33;;
21488;SDS011;10906;45.194;5.684;2022-07-29T20:29:19;2.92;;;2.30;;
21488;SDS011;10906;45.194;5.684;2022-07-29T20:32:04;3.15;;;2.30;;
21488;SDS011;10906;45.194;5.684;2022-07-29T20:34:48;4.07;;;2.15;;
21488;SDS011;10906;45.194;5.684;2022-07-29T20:37:32;3.15;;;2.10;;
21488;SDS011;10906;45.194;5.684;2022-07-29T20:40:17;3.17;;;2.28;;
21488;SDS011;10906;45.194;5.684;2022-07-29T20:43:02;4.13;;;2.17;;
21488;SDS011;10906;45.194;5.684;2022-07-29T20:45:46;3.15;;;2.17;;
21488;SDS011;10906;45.194;5.684;2022-07-29T20:48:31;2.25;;;2.00;;
21488;SDS011;10906;45.194;5.684;2022-07-29T20:51:15;4.43;;;1.92;;
21488;SDS011;10906;45.194;5.684;2022-07-29T20:53:59;4.65;;;2.60;;
21488;SDS011;10906;45.194;5.684;2022-07-29T20:56:43;3.03;;;2.28;;
21488;SDS011;10906;45.194;5.684;2022-07-29T20:59:28;3.47;;;1.80;;
21488;SDS011;10906;45.194;5.684;2022-07-29T21:02:12;2.90;;;2.40;;
21488;SDS011;10906;45.194;5.684;2022-07-29T21:04:57;2.55;;;2.30;;
21488;SDS011;10906;45.194;5.684;2022-07-29T21:07:41;2.95;;;2.35;;
21488;SDS011;10906;45.194;5.684;2022-07-29T21:10:26;5.15;;;2.85;;
21488;SDS011;10906;45.194;5.684;2022-07-29T21:13:12;3.45;;;2.80;;
21488;SDS011;10906;45.194;5.684;2022-07-29T21:15:57;2.72;;;2.47;;
21488;SDS011;10906;45.194;5.684;2022-07-29T21:18:44;2.33;;;2.00;;
21488;SDS011;10906;45.194;5.684;2022-07-29T21:21:29;3.03;;;2.45;;
21488;SDS011;10906;45.194;5.684;2022-07-29T21:24:13;5.30;;;2.47;;
21488;SDS011;10906;45.194;5.684;2022-07-29T21:26:57;3.15;;;2.55;;
21488;SDS011;10906;45.194;5.684;2022-07-29T21:30:00;4.80;;;2.20;;
21488;SDS011;10906;45.194;5.684;2022-07-29T21:32:45;4.18;;;2.13;;
21488;SDS011;10906;45.194;5.684;2022-07-29T21:35:29;3.17;;;2.42;;
21488;SDS011;10906;45.194;5.684;2022-07-29T21:38:14;3.20;;;2.30;;
21488;SDS011;10906;45.194;5.684;2022-07-29T21:40:59;2.80;;;2.60;;
21488;SDS011;10906;45.194;5.684;2022-07-29T21:43:44;2.50;;;2.30;;
21488;SDS011;10906;45.194;5.684;2022-07-29T21:46:29;8.25;;;2.67;;
21488;SDS011;10906;45.194;5.684;2022-07-29T21:49:13;4.30;;;2.50;;
21488;SDS011;10906;45.194;5.684;2022-07-29T21:51:58;6.22;;;2.95;;
21488;SDS011;10906;45.194;5.684;2022-07-29T21:54:42;5.00;;;2.58;;
21488;SDS011;10906;45.194;5.684;2022-07-29T21:57:27;6.57;;;2.75;;
